This is the latest recevied weather packets stored in our database for station/object DN9EM-1. If no packets are shown the sender has not sent any weather packets the latest 10 day(s).
| Time | Temp. | Humidity | Pressure | Rain* | Wind** | Luminosity | Snow |
|---|---|---|---|---|---|---|---|
| 1777890333 | 15.56° C | 67% | 1015.4 hPa | 0 mm | - | - | - |
| 1777889730 | 15.56° C | 69% | 1015.5 hPa | 0 mm | - | - | - |
| 1777889128 | 16.11° C | 69% | 1015.5 hPa | 0 mm | - | - | - |
| 1777888525 | 15.56° C | 70% | 1015.5 hPa | 0 mm | - | - | - |
| 1777887923 | 15.56° C | 70% | 1015.4 hPa | 0 mm | - | - | - |
| 1777887320 | 15° C | 70% | 1015.2 hPa | 0 mm | - | - | - |
| 1777886718 | 15° C | 69% | 1015.2 hPa | 0 mm | - | - | - |
| 1777886115 | 15.56° C | 69% | 1015.3 hPa | 0 mm | - | - | - |
| 1777885572 | 16.11° C | 67% | 1015.4 hPa | 0 mm | - | - | - |
| 1777884970 | 15.56° C | 68% | 1015.3 hPa | 0 mm | - | - | - |
| 1777884368 | 16.11° C | 66% | 1015.2 hPa | 0 mm | - | - | - |
| 1777883765 | 13.89° C | 72% | 1015.1 hPa | 0 mm | - | - | - |
| 1777883162 | 13.33° C | 75% | 1015.2 hPa | 0 mm | - | - | - |
| 1777882560 | 13.33° C | 75% | 1015 hPa | 0 mm | - | - | - |
| 1777881957 | 13.33° C | 76% | 1015.1 hPa | 0 mm | - | - | - |
| 1777881355 | 12.78° C | 78% | 1015.1 hPa | 0 mm | - | - | - |
| 1777880752 | 12.78° C | 79% | 1014.9 hPa | 0 mm | - | - | - |
| 1777880149 | 12.78° C | 79% | 1014.8 hPa | 0 mm | - | - | - |
| 1777879547 | 12.78° C | 78% | 1014.8 hPa | 0 mm | - | - | - |
| 1777878944 | 12.22° C | 78% | 1014.8 hPa | 0 mm | - | - | - |
| 1777878342 | 12.22° C | 79% | 1014.8 hPa | 0 mm | - | - | - |
| 1777877739 | 12.22° C | 80% | 1014.7 hPa | 0 mm | - | - | - |
| 1777877137 | 11.67° C | 81% | 1014.7 hPa | 0 mm | - | - | - |
| 1777876534 | 11.67° C | 81% | 1014.6 hPa | 0 mm | - | - | - |
| 1777875932 | 11.67° C | 82% | 1014.3 hPa | 0 mm | - | - | - |
* Rain latest hour (hover to see other rain measurements)
** Current wind speed in m/s (hover to see current wind gust speed)